sensor_id;sensor_type;location;lat;lon;timestamp;P1;durP1;ratioP1;P2;durP2;ratioP2
61036;SDS011;72210;47.076;15.430;2023-08-30T00:00:00;2.60;;;0.63;;
61036;SDS011;72210;47.076;15.430;2023-08-30T00:02:29;3.95;;;0.50;;
61036;SDS011;72210;47.076;15.430;2023-08-30T00:04:58;2.13;;;0.50;;
61036;SDS011;72210;47.076;15.430;2023-08-30T00:09:53;5.40;;;0.60;;
61036;SDS011;72210;47.076;15.430;2023-08-30T00:12:20;1.17;;;0.45;;
61036;SDS011;72210;47.076;15.430;2023-08-30T00:14:47;2.05;;;0.65;;
61036;SDS011;72210;47.076;15.430;2023-08-30T00:17:14;2.55;;;0.70;;
61036;SDS011;72210;47.076;15.430;2023-08-30T00:19:44;2.25;;;0.50;;
61036;SDS011;72210;47.076;15.430;2023-08-30T00:22:11;2.55;;;0.68;;
61036;SDS011;72210;47.076;15.430;2023-08-30T00:24:38;2.45;;;0.68;;
61036;SDS011;72210;47.076;15.430;2023-08-30T00:27:05;2.58;;;0.60;;
61036;SDS011;72210;47.076;15.430;2023-08-30T00:29:32;1.52;;;0.50;;
61036;SDS011;72210;47.076;15.430;2023-08-30T00:31:59;4.63;;;0.70;;
61036;SDS011;72210;47.076;15.430;2023-08-30T00:34:26;2.33;;;0.43;;
61036;SDS011;72210;47.076;15.430;2023-08-30T00:36:55;1.52;;;0.57;;
61036;SDS011;72210;47.076;15.430;2023-08-30T00:39:22;2.92;;;0.70;;
61036;SDS011;72210;47.076;15.430;2023-08-30T00:41:50;3.70;;;0.60;;
61036;SDS011;72210;47.076;15.430;2023-08-30T00:44:17;3.13;;;0.52;;
61036;SDS011;72210;47.076;15.430;2023-08-30T00:46:44;1.38;;;0.55;;
61036;SDS011;72210;47.076;15.430;2023-08-30T00:49:11;3.17;;;0.68;;
61036;SDS011;72210;47.076;15.430;2023-08-30T00:51:38;3.35;;;0.80;;
61036;SDS011;72210;47.076;15.430;2023-08-30T00:54:08;1.48;;;0.57;;
61036;SDS011;72210;47.076;15.430;2023-08-30T00:56:35;2.10;;;0.60;;
61036;SDS011;72210;47.076;15.430;2023-08-30T00:59:02;2.40;;;0.73;;
61036;SDS011;72210;47.076;15.430;2023-08-30T01:01:29;3.28;;;0.80;;
61036;SDS011;72210;47.076;15.430;2023-08-30T01:03:56;2.22;;;0.70;;
61036;SDS011;72210;47.076;15.430;2023-08-30T01:06:23;1.95;;;0.60;;
61036;SDS011;72210;47.076;15.430;2023-08-30T01:08:50;1.73;;;0.60;;
61036;SDS011;72210;47.076;15.430;2023-08-30T01:11:20;2.78;;;0.82;;
61036;SDS011;72210;47.076;15.430;2023-08-30T01:13:58;2.20;;;0.60;;
61036;SDS011;72210;47.076;15.430;2023-08-30T01:16:30;3.90;;;0.70;;
61036;SDS011;72210;47.076;15.430;2023-08-30T01:18:57;3.63;;;0.70;;
61036;SDS011;72210;47.076;15.430;2023-08-30T01:21:30;2.30;;;0.95;;
61036;SDS011;72210;47.076;15.430;2023-08-30T01:24:08;3.65;;;0.80;;
61036;SDS011;72210;47.076;15.430;2023-08-30T01:26:44;2.95;;;0.50;;
61036;SDS011;72210;47.076;15.430;2023-08-30T01:29:27;3.70;;;0.77;;
61036;SDS011;72210;47.076;15.430;2023-08-30T01:31:56;2.30;;;0.50;;
61036;SDS011;72210;47.076;15.430;2023-08-30T01:34:23;1.15;;;0.55;;
61036;SDS011;72210;47.076;15.430;2023-08-30T01:36:51;2.58;;;0.77;;
61036;SDS011;72210;47.076;15.430;2023-08-30T01:39:18;2.67;;;0.65;;
61036;SDS011;72210;47.076;15.430;2023-08-30T01:41:47;3.38;;;0.77;;
61036;SDS011;72210;47.076;15.430;2023-08-30T01:44:16;2.97;;;0.73;;
61036;SDS011;72210;47.076;15.430;2023-08-30T01:46:43;3.38;;;0.85;;
61036;SDS011;72210;47.076;15.430;2023-08-30T01:49:14;1.92;;;0.60;;
61036;SDS011;72210;47.076;15.430;2023-08-30T01:51:41;2.92;;;0.80;;
61036;SDS011;72210;47.076;15.430;2023-08-30T01:54:09;2.88;;;0.80;;
61036;SDS011;72210;47.076;15.430;2023-08-30T01:56:39;3.10;;;0.80;;
61036;SDS011;72210;47.076;15.430;2023-08-30T01:59:07;1.85;;;0.65;;
61036;SDS011;72210;47.076;15.430;2023-08-30T02:01:35;6.70;;;0.90;;
61036;SDS011;72210;47.076;15.430;2023-08-30T02:04:02;3.65;;;1.00;;
61036;SDS011;72210;47.076;15.430;2023-08-30T02:06:31;5.50;;;0.77;;
61036;SDS011;72210;47.076;15.430;2023-08-30T02:09:03;2.67;;;0.85;;
61036;SDS011;72210;47.076;15.430;2023-08-30T02:11:36;4.65;;;0.93;;
61036;SDS011;72210;47.076;15.430;2023-08-30T02:14:05;2.22;;;0.70;;
61036;SDS011;72210;47.076;15.430;2023-08-30T02:16:39;2.42;;;0.70;;
61036;SDS011;72210;47.076;15.430;2023-08-30T02:19:07;4.13;;;0.77;;
61036;SDS011;72210;47.076;15.430;2023-08-30T02:21:36;3.33;;;0.80;;
61036;SDS011;72210;47.076;15.430;2023-08-30T02:24:03;2.92;;;0.60;;
61036;SDS011;72210;47.076;15.430;2023-08-30T02:26:31;2.75;;;0.73;;
61036;SDS011;72210;47.076;15.430;2023-08-30T02:28:58;1.67;;;0.52;;
61036;SDS011;72210;47.076;15.430;2023-08-30T02:31:25;3.70;;;0.80;;
61036;SDS011;72210;47.076;15.430;2023-08-30T02:33:53;3.20;;;0.70;;
61036;SDS011;72210;47.076;15.430;2023-08-30T02:36:20;2.92;;;0.77;;
61036;SDS011;72210;47.076;15.430;2023-08-30T02:38:47;2.83;;;0.70;;
61036;SDS011;72210;47.076;15.430;2023-08-30T02:41:15;2.15;;;0.70;;
61036;SDS011;72210;47.076;15.430;2023-08-30T02:43:42;2.40;;;0.70;;
61036;SDS011;72210;47.076;15.430;2023-08-30T02:46:09;2.17;;;0.52;;
61036;SDS011;72210;47.076;15.430;2023-08-30T02:48:36;3.63;;;0.80;;
61036;SDS011;72210;47.076;15.430;2023-08-30T02:51:05;4.72;;;0.88;;
61036;SDS011;72210;47.076;15.430;2023-08-30T02:53:32;2.90;;;0.70;;
61036;SDS011;72210;47.076;15.430;2023-08-30T02:55:59;3.78;;;0.90;;
61036;SDS011;72210;47.076;15.430;2023-08-30T02:58:26;3.97;;;0.88;;
61036;SDS011;72210;47.076;15.430;2023-08-30T03:00:53;4.82;;;1.10;;
61036;SDS011;72210;47.076;15.430;2023-08-30T03:03:20;3.60;;;0.85;;
61036;SDS011;72210;47.076;15.430;2023-08-30T03:05:47;3.17;;;0.90;;
61036;SDS011;72210;47.076;15.430;2023-08-30T03:08:18;3.13;;;0.82;;
61036;SDS011;72210;47.076;15.430;2023-08-30T03:10:45;3.92;;;0.70;;
61036;SDS011;72210;47.076;15.430;2023-08-30T03:13:12;2.03;;;0.68;;
61036;SDS011;72210;47.076;15.430;2023-08-30T03:15:39;4.47;;;0.90;;
61036;SDS011;72210;47.076;15.430;2023-08-30T03:18:06;3.30;;;0.93;;
61036;SDS011;72210;47.076;15.430;2023-08-30T03:20:34;3.63;;;0.80;;
61036;SDS011;72210;47.076;15.430;2023-08-30T03:23:01;3.53;;;1.00;;
61036;SDS011;72210;47.076;15.430;2023-08-30T03:25:30;7.35;;;1.10;;
61036;SDS011;72210;47.076;15.430;2023-08-30T03:27:57;4.20;;;0.75;;
61036;SDS011;72210;47.076;15.430;2023-08-30T03:30:24;2.10;;;0.70;;
61036;SDS011;72210;47.076;15.430;2023-08-30T03:32:51;2.95;;;0.80;;
61036;SDS011;72210;47.076;15.430;2023-08-30T03:35:18;3.13;;;0.90;;
61036;SDS011;72210;47.076;15.430;2023-08-30T03:37:47;3.72;;;0.90;;
61036;SDS011;72210;47.076;15.430;2023-08-30T03:40:14;4.30;;;1.00;;
61036;SDS011;72210;47.076;15.430;2023-08-30T03:42:42;9.10;;;2.00;;
61036;SDS011;72210;47.076;15.430;2023-08-30T03:45:09;3.72;;;0.98;;
61036;SDS011;72210;47.076;15.430;2023-08-30T03:47:37;7.80;;;1.20;;
61036;SDS011;72210;47.076;15.430;2023-08-30T03:50:04;7.32;;;1.92;;
61036;SDS011;72210;47.076;15.430;2023-08-30T03:52:34;5.88;;;1.70;;
61036;SDS011;72210;47.076;15.430;2023-08-30T03:55:01;4.57;;;1.13;;
61036;SDS011;72210;47.076;15.430;2023-08-30T03:57:28;5.28;;;1.23;;
61036;SDS011;72210;47.076;15.430;2023-08-30T03:59:56;4.78;;;1.00;;
61036;SDS011;72210;47.076;15.430;2023-08-30T04:02:23;6.38;;;1.48;;
61036;SDS011;72210;47.076;15.430;2023-08-30T04:04:50;3.25;;;0.80;;
61036;SDS011;72210;47.076;15.430;2023-08-30T04:07:17;3.70;;;0.98;;
61036;SDS011;72210;47.076;15.430;2023-08-30T04:09:44;2.92;;;0.90;;
61036;SDS011;72210;47.076;15.430;2023-08-30T04:12:11;5.60;;;1.10;;
61036;SDS011;72210;47.076;15.430;2023-08-30T04:14:38;2.78;;;0.75;;
61036;SDS011;72210;47.076;15.430;2023-08-30T04:17:07;3.65;;;0.85;;
61036;SDS011;72210;47.076;15.430;2023-08-30T04:19:34;3.95;;;1.45;;
61036;SDS011;72210;47.076;15.430;2023-08-30T04:22:01;4.68;;;0.90;;
61036;SDS011;72210;47.076;15.430;2023-08-30T04:24:28;5.88;;;1.00;;
61036;SDS011;72210;47.076;15.430;2023-08-30T04:26:55;7.40;;;1.40;;
61036;SDS011;72210;47.076;15.430;2023-08-30T04:29:22;8.57;;;2.08;;
61036;SDS011;72210;47.076;15.430;2023-08-30T04:31:49;6.25;;;1.02;;
61036;SDS011;72210;47.076;15.430;2023-08-30T04:34:19;4.45;;;1.10;;
61036;SDS011;72210;47.076;15.430;2023-08-30T04:36:46;3.55;;;1.10;;
61036;SDS011;72210;47.076;15.430;2023-08-30T04:39:13;5.28;;;1.60;;
61036;SDS011;72210;47.076;15.430;2023-08-30T04:41:40;6.03;;;1.40;;
61036;SDS011;72210;47.076;15.430;2023-08-30T04:44:07;5.00;;;1.50;;
61036;SDS011;72210;47.076;15.430;2023-08-30T04:46:34;4.50;;;1.45;;
61036;SDS011;72210;47.076;15.430;2023-08-30T04:49:01;4.75;;;1.15;;
61036;SDS011;72210;47.076;15.430;2023-08-30T04:51:30;6.15;;;1.80;;
61036;SDS011;72210;47.076;15.430;2023-08-30T04:53:57;6.15;;;1.55;;
61036;SDS011;72210;47.076;15.430;2023-08-30T04:56:24;7.38;;;1.35;;
61036;SDS011;72210;47.076;15.430;2023-08-30T04:58:51;4.70;;;1.00;;
61036;SDS011;72210;47.076;15.430;2023-08-30T05:01:19;7.35;;;2.22;;
61036;SDS011;72210;47.076;15.430;2023-08-30T05:03:46;6.00;;;1.48;;
61036;SDS011;72210;47.076;15.430;2023-08-30T05:06:13;8.32;;;1.20;;
61036;SDS011;72210;47.076;15.430;2023-08-30T05:08:42;4.97;;;1.10;;
61036;SDS011;72210;47.076;15.430;2023-08-30T05:11:10;5.38;;;1.50;;
61036;SDS011;72210;47.076;15.430;2023-08-30T05:13:37;7.35;;;1.30;;
61036;SDS011;72210;47.076;15.430;2023-08-30T05:16:05;4.40;;;1.00;;
61036;SDS011;72210;47.076;15.430;2023-08-30T05:18:32;5.88;;;1.38;;
61036;SDS011;72210;47.076;15.430;2023-08-30T05:20:59;7.13;;;1.08;;
61036;SDS011;72210;47.076;15.430;2023-08-30T05:23:26;6.43;;;1.40;;
61036;SDS011;72210;47.076;15.430;2023-08-30T05:25:54;6.65;;;1.55;;
61036;SDS011;72210;47.076;15.430;2023-08-30T05:28:22;13.23;;;1.40;;
61036;SDS011;72210;47.076;15.430;2023-08-30T05:30:49;10.02;;;1.63;;
61036;SDS011;72210;47.076;15.430;2023-08-30T05:33:16;5.85;;;1.50;;
61036;SDS011;72210;47.076;15.430;2023-08-30T05:35:43;6.35;;;1.60;;
61036;SDS011;72210;47.076;15.430;2023-08-30T05:38:10;4.22;;;1.30;;
61036;SDS011;72210;47.076;15.430;2023-08-30T05:40:37;5.25;;;1.15;;
61036;SDS011;72210;47.076;15.430;2023-08-30T05:43:07;8.38;;;1.63;;
61036;SDS011;72210;47.076;15.430;2023-08-30T05:45:34;6.40;;;1.33;;
61036;SDS011;72210;47.076;15.430;2023-08-30T05:48:01;13.82;;;1.38;;
61036;SDS011;72210;47.076;15.430;2023-08-30T05:50:28;7.00;;;1.60;;
61036;SDS011;72210;47.076;15.430;2023-08-30T05:52:55;15.27;;;1.80;;
61036;SDS011;72210;47.076;15.430;2023-08-30T05:55:22;8.57;;;1.83;;
61036;SDS011;72210;47.076;15.430;2023-08-30T05:57:49;6.75;;;1.88;;
61036;SDS011;72210;47.076;15.430;2023-08-30T06:00:18;7.57;;;1.63;;
61036;SDS011;72210;47.076;15.430;2023-08-30T06:02:45;6.75;;;1.30;;
61036;SDS011;72210;47.076;15.430;2023-08-30T06:05:12;4.97;;;1.20;;
61036;SDS011;72210;47.076;15.430;2023-08-30T06:07:40;6.20;;;1.50;;
61036;SDS011;72210;47.076;15.430;2023-08-30T06:10:08;9.70;;;1.33;;
61036;SDS011;72210;47.076;15.430;2023-08-30T06:12:36;7.30;;;1.45;;
61036;SDS011;72210;47.076;15.430;2023-08-30T06:15:03;6.88;;;1.38;;
61036;SDS011;72210;47.076;15.430;2023-08-30T06:17:33;5.45;;;1.25;;
61036;SDS011;72210;47.076;15.430;2023-08-30T06:20:00;7.43;;;1.55;;
61036;SDS011;72210;47.076;15.430;2023-08-30T06:22:27;8.13;;;1.80;;
61036;SDS011;72210;47.076;15.430;2023-08-30T06:24:53;6.93;;;1.70;;
61036;SDS011;72210;47.076;15.430;2023-08-30T06:27:21;8.13;;;1.50;;
61036;SDS011;72210;47.076;15.430;2023-08-30T06:29:49;7.70;;;1.10;;
61036;SDS011;72210;47.076;15.430;2023-08-30T06:32:16;6.35;;;1.30;;
61036;SDS011;72210;47.076;15.430;2023-08-30T06:34:45;7.53;;;1.50;;
61036;SDS011;72210;47.076;15.430;2023-08-30T06:37:12;5.57;;;1.75;;
61036;SDS011;72210;47.076;15.430;2023-08-30T06:39:39;5.53;;;1.10;;
61036;SDS011;72210;47.076;15.430;2023-08-30T06:42:07;4.47;;;1.15;;
61036;SDS011;72210;47.076;15.430;2023-08-30T06:44:34;6.00;;;1.20;;
61036;SDS011;72210;47.076;15.430;2023-08-30T06:47:02;4.03;;;1.10;;
61036;SDS011;72210;47.076;15.430;2023-08-30T06:49:29;7.03;;;1.20;;
61036;SDS011;72210;47.076;15.430;2023-08-30T06:52:00;5.57;;;1.30;;
61036;SDS011;72210;47.076;15.430;2023-08-30T06:54:27;3.72;;;1.40;;
61036;SDS011;72210;47.076;15.430;2023-08-30T06:56:58;5.50;;;1.10;;
61036;SDS011;72210;47.076;15.430;2023-08-30T06:59:26;9.48;;;1.42;;
61036;SDS011;72210;47.076;15.430;2023-08-30T07:01:53;4.82;;;1.10;;
61036;SDS011;72210;47.076;15.430;2023-08-30T07:04:21;8.45;;;3.03;;
61036;SDS011;72210;47.076;15.430;2023-08-30T07:06:48;9.52;;;2.40;;
61036;SDS011;72210;47.076;15.430;2023-08-30T07:09:17;6.10;;;1.30;;
61036;SDS011;72210;47.076;15.430;2023-08-30T07:11:48;8.50;;;1.90;;
61036;SDS011;72210;47.076;15.430;2023-08-30T07:14:15;4.22;;;1.20;;
61036;SDS011;72210;47.076;15.430;2023-08-30T07:16:42;10.55;;;1.80;;
61036;SDS011;72210;47.076;15.430;2023-08-30T07:19:10;7.97;;;1.52;;
61036;SDS011;72210;47.076;15.430;2023-08-30T07:21:37;6.95;;;1.35;;
61036;SDS011;72210;47.076;15.430;2023-08-30T07:24:05;6.43;;;1.23;;
61036;SDS011;72210;47.076;15.430;2023-08-30T07:26:35;5.65;;;1.30;;
61036;SDS011;72210;47.076;15.430;2023-08-30T07:29:03;6.60;;;1.20;;
61036;SDS011;72210;47.076;15.430;2023-08-30T07:31:31;12.52;;;1.58;;
61036;SDS011;72210;47.076;15.430;2023-08-30T07:33:58;7.00;;;2.03;;
61036;SDS011;72210;47.076;15.430;2023-08-30T07:36:26;9.50;;;2.45;;
61036;SDS011;72210;47.076;15.430;2023-08-30T07:39:10;6.45;;;1.30;;
61036;SDS011;72210;47.076;15.430;2023-08-30T07:41:39;7.40;;;1.40;;
61036;SDS011;72210;47.076;15.430;2023-08-30T07:44:07;6.97;;;1.65;;
61036;SDS011;72210;47.076;15.430;2023-08-30T07:46:34;6.20;;;1.33;;
61036;SDS011;72210;47.076;15.430;2023-08-30T07:49:01;9.68;;;1.92;;
61036;SDS011;72210;47.076;15.430;2023-08-30T07:51:28;6.47;;;1.77;;
61036;SDS011;72210;47.076;15.430;2023-08-30T07:53:56;7.18;;;1.52;;
61036;SDS011;72210;47.076;15.430;2023-08-30T07:56:23;7.90;;;1.75;;
61036;SDS011;72210;47.076;15.430;2023-08-30T07:58:53;5.72;;;1.50;;
61036;SDS011;72210;47.076;15.430;2023-08-30T08:01:20;6.45;;;1.70;;
61036;SDS011;72210;47.076;15.430;2023-08-30T08:03:47;6.15;;;1.48;;
61036;SDS011;72210;47.076;15.430;2023-08-30T08:06:31;9.60;;;1.60;;
61036;SDS011;72210;47.076;15.430;2023-08-30T08:09:00;12.15;;;1.67;;
61036;SDS011;72210;47.076;15.430;2023-08-30T08:11:28;9.23;;;1.83;;
61036;SDS011;72210;47.076;15.430;2023-08-30T08:13:56;8.43;;;1.90;;
61036;SDS011;72210;47.076;15.430;2023-08-30T08:16:23;6.60;;;1.67;;
61036;SDS011;72210;47.076;15.430;2023-08-30T08:18:50;10.20;;;1.90;;
61036;SDS011;72210;47.076;15.430;2023-08-30T08:21:18;8.52;;;1.70;;
61036;SDS011;72210;47.076;15.430;2023-08-30T08:23:45;9.85;;;1.73;;
61036;SDS011;72210;47.076;15.430;2023-08-30T08:26:12;8.95;;;1.60;;
61036;SDS011;72210;47.076;15.430;2023-08-30T08:28:39;8.68;;;2.00;;
61036;SDS011;72210;47.076;15.430;2023-08-30T08:31:08;11.98;;;2.40;;
61036;SDS011;72210;47.076;15.430;2023-08-30T08:33:36;10.07;;;2.13;;
61036;SDS011;72210;47.076;15.430;2023-08-30T08:36:03;15.70;;;2.58;;
61036;SDS011;72210;47.076;15.430;2023-08-30T08:38:33;11.05;;;1.95;;
61036;SDS011;72210;47.076;15.430;2023-08-30T08:41:02;9.05;;;2.00;;
61036;SDS011;72210;47.076;15.430;2023-08-30T08:43:32;11.80;;;1.90;;
61036;SDS011;72210;47.076;15.430;2023-08-30T08:46:00;11.40;;;1.60;;
61036;SDS011;72210;47.076;15.430;2023-08-30T08:48:29;11.32;;;1.80;;
61036;SDS011;72210;47.076;15.430;2023-08-30T08:50:58;7.13;;;1.30;;
61036;SDS011;72210;47.076;15.430;2023-08-30T08:53:27;5.13;;;1.10;;
61036;SDS011;72210;47.076;15.430;2023-08-30T08:55:55;7.70;;;2.20;;
61036;SDS011;72210;47.076;15.430;2023-08-30T08:58:25;11.35;;;2.38;;
61036;SDS011;72210;47.076;15.430;2023-08-30T09:00:52;10.07;;;2.58;;
61036;SDS011;72210;47.076;15.430;2023-08-30T09:03:21;17.15;;;4.53;;
61036;SDS011;72210;47.076;15.430;2023-08-30T09:05:50;6.05;;;1.20;;
61036;SDS011;72210;47.076;15.430;2023-08-30T09:08:18;5.32;;;1.27;;
61036;SDS011;72210;47.076;15.430;2023-08-30T09:10:47;10.23;;;2.08;;
61036;SDS011;72210;47.076;15.430;2023-08-30T09:13:14;5.82;;;1.65;;
61036;SDS011;72210;47.076;15.430;2023-08-30T09:15:41;7.45;;;1.98;;
61036;SDS011;72210;47.076;15.430;2023-08-30T09:18:14;6.60;;;1.20;;
61036;SDS011;72210;47.076;15.430;2023-08-30T09:20:41;5.25;;;1.00;;
61036;SDS011;72210;47.076;15.430;2023-08-30T09:23:17;9.40;;;1.60;;
61036;SDS011;72210;47.076;15.430;2023-08-30T09:25:44;8.82;;;1.73;;
61036;SDS011;72210;47.076;15.430;2023-08-30T09:28:13;8.88;;;1.50;;
61036;SDS011;72210;47.076;15.430;2023-08-30T09:30:40;7.07;;;1.50;;
61036;SDS011;72210;47.076;15.430;2023-08-30T09:33:07;6.53;;;1.70;;
61036;SDS011;72210;47.076;15.430;2023-08-30T09:35:39;11.23;;;1.50;;
61036;SDS011;72210;47.076;15.430;2023-08-30T09:38:17;6.43;;;1.10;;
61036;SDS011;72210;47.076;15.430;2023-08-30T09:40:44;8.40;;;1.80;;
61036;SDS011;72210;47.076;15.430;2023-08-30T09:43:12;8.15;;;1.20;;
61036;SDS011;72210;47.076;15.430;2023-08-30T09:45:40;5.05;;;1.17;;
61036;SDS011;72210;47.076;15.430;2023-08-30T09:48:08;7.10;;;1.83;;
61036;SDS011;72210;47.076;15.430;2023-08-30T09:50:35;7.97;;;1.27;;
61036;SDS011;72210;47.076;15.430;2023-08-30T09:53:05;8.82;;;2.00;;
61036;SDS011;72210;47.076;15.430;2023-08-30T09:55:36;8.60;;;1.60;;
61036;SDS011;72210;47.076;15.430;2023-08-30T09:58:03;6.85;;;1.35;;
61036;SDS011;72210;47.076;15.430;2023-08-30T10:00:31;4.50;;;1.00;;
61036;SDS011;72210;47.076;15.430;2023-08-30T10:02:59;7.85;;;1.70;;
61036;SDS011;72210;47.076;15.430;2023-08-30T10:05:47;5.47;;;1.50;;
61036;SDS011;72210;47.076;15.430;2023-08-30T10:08:14;13.23;;;2.55;;
61036;SDS011;72210;47.076;15.430;2023-08-30T10:10:45;6.30;;;1.27;;
61036;SDS011;72210;47.076;15.430;2023-08-30T10:13:12;8.07;;;1.38;;
61036;SDS011;72210;47.076;15.430;2023-08-30T10:15:43;6.13;;;1.50;;
61036;SDS011;72210;47.076;15.430;2023-08-30T10:18:15;6.00;;;1.40;;
61036;SDS011;72210;47.076;15.430;2023-08-30T10:20:46;5.22;;;1.00;;
61036;SDS011;72210;47.076;15.430;2023-08-30T10:23:14;5.40;;;1.10;;
61036;SDS011;72210;47.076;15.430;2023-08-30T10:25:46;6.80;;;1.35;;
61036;SDS011;72210;47.076;15.430;2023-08-30T10:28:17;7.13;;;1.50;;
61036;SDS011;72210;47.076;15.430;2023-08-30T10:30:47;6.18;;;1.90;;
61036;SDS011;72210;47.076;15.430;2023-08-30T10:33:14;8.90;;;3.40;;
61036;SDS011;72210;47.076;15.430;2023-08-30T10:35:48;6.28;;;1.15;;
61036;SDS011;72210;47.076;15.430;2023-08-30T10:38:24;7.95;;;2.30;;
61036;SDS011;72210;47.076;15.430;2023-08-30T10:40:53;4.85;;;1.35;;
61036;SDS011;72210;47.076;15.430;2023-08-30T10:43:31;12.27;;;4.05;;
61036;SDS011;72210;47.076;15.430;2023-08-30T10:46:01;5.13;;;1.30;;
61036;SDS011;72210;47.076;15.430;2023-08-30T10:48:35;5.70;;;1.17;;
61036;SDS011;72210;47.076;15.430;2023-08-30T10:51:04;6.78;;;1.30;;
61036;SDS011;72210;47.076;15.430;2023-08-30T10:53:32;9.90;;;1.52;;
61036;SDS011;72210;47.076;15.430;2023-08-30T10:56:05;6.03;;;1.00;;
61036;SDS011;72210;47.076;15.430;2023-08-30T10:58:40;5.95;;;1.02;;
61036;SDS011;72210;47.076;15.430;2023-08-30T11:01:08;5.47;;;1.02;;
61036;SDS011;72210;47.076;15.430;2023-08-30T11:03:37;5.07;;;1.30;;
61036;SDS011;72210;47.076;15.430;2023-08-30T11:06:04;4.28;;;1.05;;
61036;SDS011;72210;47.076;15.430;2023-08-30T11:08:33;10.02;;;2.33;;
61036;SDS011;72210;47.076;15.430;2023-08-30T11:11:06;7.55;;;1.75;;
61036;SDS011;72210;47.076;15.430;2023-08-30T11:13:34;4.00;;;0.93;;
61036;SDS011;72210;47.076;15.430;2023-08-30T11:16:02;11.48;;;1.30;;
61036;SDS011;72210;47.076;15.430;2023-08-30T11:18:30;8.05;;;1.92;;
61036;SDS011;72210;47.076;15.430;2023-08-30T11:21:03;5.07;;;1.20;;
61036;SDS011;72210;47.076;15.430;2023-08-30T11:23:32;6.25;;;1.35;;
61036;SDS011;72210;47.076;15.430;2023-08-30T11:26:00;4.65;;;1.02;;
61036;SDS011;72210;47.076;15.430;2023-08-30T11:28:29;3.85;;;1.08;;
61036;SDS011;72210;47.076;15.430;2023-08-30T11:30:56;12.25;;;1.70;;
61036;SDS011;72210;47.076;15.430;2023-08-30T11:33:23;5.07;;;1.15;;
61036;SDS011;72210;47.076;15.430;2023-08-30T11:35:51;4.97;;;1.10;;
61036;SDS011;72210;47.076;15.430;2023-08-30T11:38:21;6.68;;;1.55;;
61036;SDS011;72210;47.076;15.430;2023-08-30T11:40:49;4.97;;;1.08;;
61036;SDS011;72210;47.076;15.430;2023-08-30T11:43:16;4.15;;;0.80;;
61036;SDS011;72210;47.076;15.430;2023-08-30T11:45:45;2.90;;;0.90;;
61036;SDS011;72210;47.076;15.430;2023-08-30T11:48:12;7.70;;;0.93;;
61036;SDS011;72210;47.076;15.430;2023-08-30T11:50:40;9.60;;;2.35;;
61036;SDS011;72210;47.076;15.430;2023-08-30T11:53:14;7.30;;;1.98;;
61036;SDS011;72210;47.076;15.430;2023-08-30T11:55:42;10.32;;;1.40;;
61036;SDS011;72210;47.076;15.430;2023-08-30T11:58:09;3.92;;;1.10;;
61036;SDS011;72210;47.076;15.430;2023-08-30T12:00:38;3.35;;;0.82;;
61036;SDS011;72210;47.076;15.430;2023-08-30T12:03:07;5.78;;;1.00;;
61036;SDS011;72210;47.076;15.430;2023-08-30T12:05:34;8.38;;;2.65;;
61036;SDS011;72210;47.076;15.430;2023-08-30T12:08:02;8.65;;;1.20;;
61036;SDS011;72210;47.076;15.430;2023-08-30T12:10:29;7.25;;;1.70;;
61036;SDS011;72210;47.076;15.430;2023-08-30T12:12:57;5.63;;;1.13;;
61036;SDS011;72210;47.076;15.430;2023-08-30T12:15:24;5.93;;;1.25;;
61036;SDS011;72210;47.076;15.430;2023-08-30T12:17:52;8.48;;;1.88;;
61036;SDS011;72210;47.076;15.430;2023-08-30T12:20:20;5.75;;;1.13;;
61036;SDS011;72210;47.076;15.430;2023-08-30T12:22:47;4.68;;;1.27;;
61036;SDS011;72210;47.076;15.430;2023-08-30T12:25:18;4.55;;;1.08;;
61036;SDS011;72210;47.076;15.430;2023-08-30T12:27:46;7.68;;;1.50;;
61036;SDS011;72210;47.076;15.430;2023-08-30T12:30:14;8.95;;;1.80;;
61036;SDS011;72210;47.076;15.430;2023-08-30T12:32:42;4.78;;;1.10;;
61036;SDS011;72210;47.076;15.430;2023-08-30T12:35:09;10.00;;;1.60;;
61036;SDS011;72210;47.076;15.430;2023-08-30T12:37:39;9.98;;;1.50;;
61036;SDS011;72210;47.076;15.430;2023-08-30T12:40:06;7.03;;;1.60;;
61036;SDS011;72210;47.076;15.430;2023-08-30T12:42:34;6.22;;;1.40;;
61036;SDS011;72210;47.076;15.430;2023-08-30T12:45:01;10.20;;;1.90;;
61036;SDS011;72210;47.076;15.430;2023-08-30T12:47:28;8.73;;;1.85;;
61036;SDS011;72210;47.076;15.430;2023-08-30T12:49:55;5.75;;;1.50;;
61036;SDS011;72210;47.076;15.430;2023-08-30T12:52:22;4.72;;;1.30;;
61036;SDS011;72210;47.076;15.430;2023-08-30T12:54:51;6.65;;;1.60;;
61036;SDS011;72210;47.076;15.430;2023-08-30T12:57:18;10.85;;;1.92;;
61036;SDS011;72210;47.076;15.430;2023-08-30T12:59:46;7.00;;;1.60;;
61036;SDS011;72210;47.076;15.430;2023-08-30T13:02:13;4.22;;;1.10;;
61036;SDS011;72210;47.076;15.430;2023-08-30T13:04:40;8.27;;;2.00;;
61036;SDS011;72210;47.076;15.430;2023-08-30T13:07:08;12.73;;;2.50;;
61036;SDS011;72210;47.076;15.430;2023-08-30T13:09:35;8.10;;;1.65;;
61036;SDS011;72210;47.076;15.430;2023-08-30T13:12:06;7.78;;;2.92;;
61036;SDS011;72210;47.076;15.430;2023-08-30T13:14:34;6.47;;;1.60;;
61036;SDS011;72210;47.076;15.430;2023-08-30T13:17:01;9.90;;;1.63;;
61036;SDS011;72210;47.076;15.430;2023-08-30T13:19:28;11.57;;;4.97;;
61036;SDS011;72210;47.076;15.430;2023-08-30T13:21:55;10.23;;;2.10;;
61036;SDS011;72210;47.076;15.430;2023-08-30T13:24:22;8.00;;;2.40;;
61036;SDS011;72210;47.076;15.430;2023-08-30T13:26:52;12.95;;;2.00;;
61036;SDS011;72210;47.076;15.430;2023-08-30T13:29:20;12.18;;;2.92;;
61036;SDS011;72210;47.076;15.430;2023-08-30T13:31:48;8.77;;;1.75;;
61036;SDS011;72210;47.076;15.430;2023-08-30T13:34:15;6.25;;;1.55;;
61036;SDS011;72210;47.076;15.430;2023-08-30T13:36:43;16.42;;;2.50;;
61036;SDS011;72210;47.076;15.430;2023-08-30T13:39:10;15.10;;;3.45;;
61036;SDS011;72210;47.076;15.430;2023-08-30T13:41:38;8.13;;;1.75;;
61036;SDS011;72210;47.076;15.430;2023-08-30T13:44:05;15.82;;;4.80;;
61036;SDS011;72210;47.076;15.430;2023-08-30T13:46:35;15.85;;;5.15;;
61036;SDS011;72210;47.076;15.430;2023-08-30T13:49:02;16.15;;;4.22;;
61036;SDS011;72210;47.076;15.430;2023-08-30T13:51:31;11.20;;;4.68;;
61036;SDS011;72210;47.076;15.430;2023-08-30T13:53:58;18.45;;;6.25;;
61036;SDS011;72210;47.076;15.430;2023-08-30T13:56:26;13.75;;;4.07;;
61036;SDS011;72210;47.076;15.430;2023-08-30T13:58:57;8.07;;;2.70;;
61036;SDS011;72210;47.076;15.430;2023-08-30T14:01:25;13.07;;;3.28;;
61036;SDS011;72210;47.076;15.430;2023-08-30T14:03:55;16.85;;;4.90;;
61036;SDS011;72210;47.076;15.430;2023-08-30T14:06:22;8.82;;;2.30;;
61036;SDS011;72210;47.076;15.430;2023-08-30T14:08:50;8.25;;;2.40;;
61036;SDS011;72210;47.076;15.430;2023-08-30T14:11:17;8.45;;;2.55;;
61036;SDS011;72210;47.076;15.430;2023-08-30T14:13:45;8.88;;;1.90;;
61036;SDS011;72210;47.076;15.430;2023-08-30T14:16:12;12.32;;;2.35;;
61036;SDS011;72210;47.076;15.430;2023-08-30T14:18:39;10.23;;;1.98;;
61036;SDS011;72210;47.076;15.430;2023-08-30T14:21:08;7.07;;;2.15;;
61036;SDS011;72210;47.076;15.430;2023-08-30T14:23:35;9.52;;;2.70;;
61036;SDS011;72210;47.076;15.430;2023-08-30T14:26:03;9.18;;;3.17;;
61036;SDS011;72210;47.076;15.430;2023-08-30T14:28:32;8.23;;;2.03;;
61036;SDS011;72210;47.076;15.430;2023-08-30T14:30:59;7.93;;;1.70;;
61036;SDS011;72210;47.076;15.430;2023-08-30T14:33:26;12.07;;;2.83;;
61036;SDS011;72210;47.076;15.430;2023-08-30T14:35:53;11.77;;;2.92;;
61036;SDS011;72210;47.076;15.430;2023-08-30T14:38:22;6.57;;;1.80;;
61036;SDS011;72210;47.076;15.430;2023-08-30T14:40:56;10.73;;;2.50;;